Time;durP1;ratioP1;P1;durP2;ratioP2;P2;SDS_P1;SDS_P2;PMS_P1;PMS_P2;Temp;Humidity;BMP_temperature;BMP_pressure;BME280_temperature;BME280_humidity;BME280_pressure;Samples;Min_cycle;Max_cycle;Signal;HPM_P1;HPM_P2
2023/07/03 00:01:52;;;;;;;;;;;;;;;15.61;59.79;100953.59;5097252;28;20006;-73
2023/07/03 00:04:18;;;;;;;;;;;;;;;15.57;59.41;100952.81;5113391;28;19961;-74
2023/07/03 00:06:45;;;;;;;;;;;;;;;15.56;59.18;100955.56;5089412;28;19952;-74
2023/07/03 00:09:11;;;;;;;;;;;;;;;15.55;60.16;100941.34;5111899;28;20011;-74
2023/07/03 00:11:36;;;;;;;;;;;;;;;15.49;59.64;100936.25;5110401;28;20357;-74
2023/07/03 00:14:01;;;;;;;;;;;;;;;15.47;60.38;100932.78;5113055;28;20300;-74
2023/07/03 00:16:27;;;;;;;;;;;;;;;15.44;60.99;100938.25;5104135;28;19930;-74
2023/07/03 00:18:52;;;;;;;;;;;;;;;15.45;60.90;100937.31;5093748;28;19920;-74
2023/07/03 00:21:17;;;;;;;;;;;;;;;15.41;60.41;100939.25;5104726;28;19916;-74
2023/07/03 00:23:43;;;;;;;;;;;;;;;15.41;60.86;100933.06;5113203;28;20093;-74
2023/07/03 00:26:08;;;;;;;;;;;;;;;15.35;61.82;100943.94;5108513;28;19924;-74
2023/07/03 00:28:33;;;;;;;;;;;;;;;15.33;61.53;100932.47;5103045;28;19974;-74
2023/07/03 00:30:59;;;;;;;;;;;;;;;15.31;61.64;100935.22;5110822;28;20437;-74
2023/07/03 00:33:24;;;;;;;;;;;;;;;15.30;61.44;100936.13;5100696;28;19943;-74
2023/07/03 00:35:50;;;;;;;;;;;;;;;15.30;62.40;100935.25;5094544;28;19959;-74
2023/07/03 00:38:15;;;;;;;;;;;;;;;15.25;62.50;100943.44;5108627;28;19920;-74
2023/07/03 00:40:40;;;;;;;;;;;;;;;15.24;61.33;100939.06;5054005;28;19924;-74
2023/07/03 00:43:06;;;;;;;;;;;;;;;15.20;61.83;100934.75;5091875;28;19927;-74
2023/07/03 00:45:32;;;;;;;;;;;;;;;15.20;62.24;100934.75;5092203;28;19920;-74
2023/07/03 00:47:58;;;;;;;;;;;;;;;15.17;62.04;100933.09;5073552;28;19934;-74
2023/07/03 00:50:23;;;;;;;;;;;;;;;15.13;63.22;100939.47;5073551;28;20007;-74
2023/07/03 00:52:51;;;;;;;;;;;;;;;15.08;63.17;100924.56;5092126;28;19995;-74
2023/07/03 00:55:17;;;;;;;;;;;;;;;15.12;62.21;100926.19;5073660;28;19912;-74
2023/07/03 00:57:42;;;;;;;;;;;;;;;15.08;63.52;100922.75;5091773;28;20007;-74
2023/07/03 01:00:09;;;;;;;;;;;;;;;15.06;63.19;100924.66;5056795;28;19981;-74
2023/07/03 01:02:39;;;;;;;;;;;;;;;15.05;64.21;100925.56;5073561;28;20022;-75
2023/07/03 01:05:22;;;;;;;;;;;;;;;15.09;63.79;100921.00;5073361;28;19920;-74
2023/07/03 01:07:48;;;;;;;;;;;;;;;15.07;63.74;100925.50;5090669;28;19920;-75
2023/07/03 01:10:18;;;;;;;;;;;;;;;15.04;63.38;100921.16;5072792;28;19924;-74
2023/07/03 01:12:46;;;;;;;;;;;;;;;15.08;64.30;100919.25;5073163;28;19924;-75
2023/07/03 01:15:13;;;;;;;;;;;;;;;14.99;64.90;100918.69;5072420;28;19930;-74
2023/07/03 01:17:40;;;;;;;;;;;;;;;14.99;64.57;100917.81;5090942;28;20015;-74
2023/07/03 01:20:09;;;;;;;;;;;;;;;14.98;65.56;100924.91;5077165;28;19920;-75
2023/07/03 01:22:41;;;;;;;;;;;;;;;14.97;64.94;100920.53;5091249;28;19942;-75
2023/07/03 01:25:09;;;;;;;;;;;;;;;14.98;65.37;100927.59;5072644;28;20401;-74
2023/07/03 01:27:36;;;;;;;;;;;;;;;14.97;65.76;100933.88;5056198;28;20382;-74
2023/07/03 01:30:06;;;;;;;;;;;;;;;14.95;66.11;100929.53;5091293;28;19916;-75
2023/07/03 01:32:32;;;;;;;;;;;;;;;14.95;65.67;100926.84;5072859;28;19916;-74
2023/07/03 01:34:58;;;;;;;;;;;;;;;14.93;66.11;100918.91;5072499;28;19966;-74
2023/07/03 01:37:25;;;;;;;;;;;;;;;14.93;66.22;100915.38;5091359;28;20098;-75
2023/07/03 01:39:51;;;;;;;;;;;;;;;14.88;67.14;100912.88;5072510;28;20054;-74
2023/07/03 01:42:18;;;;;;;;;;;;;;;14.89;66.88;100921.78;5091185;28;20323;-75
2023/07/03 01:44:43;;;;;;;;;;;;;;;14.89;66.67;100917.31;5072523;28;19920;-74
2023/07/03 01:47:11;;;;;;;;;;;;;;;14.85;67.07;100915.66;5072258;28;19940;-75
2023/07/03 01:49:37;;;;;;;;;;;;;;;14.88;66.73;100920.00;5090891;28;19912;-74
2023/07/03 01:52:08;;;;;;;;;;;;;;;14.86;67.30;100919.19;5072268;28;20014;-74
2023/07/03 01:54:52;;;;;;;;;;;;;;;14.84;67.27;100920.13;5072599;28;19924;-74
2023/07/03 01:57:36;;;;;;;;;;;;;;;14.88;67.82;100923.53;5090653;28;19927;-74
2023/07/03 02:00:04;;;;;;;;;;;;;;;14.86;67.67;100920.09;5072494;28;19981;-74
2023/07/03 02:02:39;;;;;;;;;;;;;;;14.85;67.97;100910.34;5090610;28;19984;-75
2023/07/03 02:05:07;;;;;;;;;;;;;;;14.86;67.80;100916.53;5090640;28;19939;-75
2023/07/03 02:07:33;;;;;;;;;;;;;;;14.85;68.81;100921.00;5090815;28;19920;-74
2023/07/03 02:09:59;;;;;;;;;;;;;;;14.84;68.12;100914.81;5072373;28;19963;-75
2023/07/03 02:12:24;;;;;;;;;;;;;;;14.86;67.73;100913.88;5072624;28;19959;-74
2023/07/03 02:14:51;;;;;;;;;;;;;;;14.84;68.83;100905.94;5072437;28;19920;-74
2023/07/03 02:17:16;;;;;;;;;;;;;;;14.84;69.43;100911.28;5071264;28;19926;-74
2023/07/03 02:19:42;;;;;;;;;;;;;;;14.83;69.19;100906.84;5072434;28;19985;-75
2023/07/03 02:22:07;;;;;;;;;;;;;;;14.81;69.67;100908.72;5055945;28;20283;-74
2023/07/03 02:24:34;;;;;;;;;;;;;;;14.76;70.32;100914.25;5056016;28;19963;-75
2023/07/03 02:26:59;;;;;;;;;;;;;;;14.75;70.00;100909.81;5072332;28;19966;-75
2023/07/03 02:29:25;;;;;;;;;;;;;;;14.80;70.04;100899.84;5090781;28;19916;-75
2023/07/03 02:31:50;;;;;;;;;;;;;;;14.73;70.87;100895.69;5072443;28;19954;-75
2023/07/03 02:34:15;;;;;;;;;;;;;;;14.68;71.85;100896.78;5090879;28;19924;-75
2023/07/03 02:36:41;;;;;;;;;;;;;;;14.63;71.81;100891.63;5090687;28;19928;-74
2023/07/03 02:39:07;;;;;;;;;;;;;;;14.58;72.55;100891.78;5072570;28;19920;-75
2023/07/03 02:41:32;;;;;;;;;;;;;;;14.53;73.52;100893.75;5090572;28;19922;-75
2023/07/03 02:43:58;;;;;;;;;;;;;;;14.54;73.14;100886.63;5090834;28;20006;-75
2023/07/03 02:46:25;;;;;;;;;;;;;;;14.50;73.86;100885.00;5072144;28;19947;-74
2023/07/03 02:48:51;;;;;;;;;;;;;;;14.48;73.91;100885.03;5072145;28;19923;-75
2023/07/03 02:51:18;;;;;;;;;;;;;;;14.46;74.77;100889.56;5072558;28;19939;-75
2023/07/03 02:53:44;;;;;;;;;;;;;;;14.45;74.46;100881.63;5072099;28;20246;-75
2023/07/03 02:56:12;;;;;;;;;;;;;;;14.39;74.09;100886.28;5072521;28;19916;-74
2023/07/03 02:58:41;;;;;;;;;;;;;;;14.37;75.23;100885.44;5055894;28;19920;-75
2023/07/03 03:01:09;;;;;;;;;;;;;;;14.32;76.35;100886.56;5072683;28;20002;-74
2023/07/03 03:03:35;;;;;;;;;;;;;;;14.29;75.69;100884.88;5072317;28;19951;-74
2023/07/03 03:06:01;;;;;;;;;;;;;;;14.28;75.05;100880.47;5055700;28;19928;-74
2023/07/03 03:08:27;;;;;;;;;;;;;;;14.19;75.35;100879.00;5072238;28;19970;-75
2023/07/03 03:10:53;;;;;;;;;;;;;;;14.18;74.36;100881.72;5071866;28;19920;-74
2023/07/03 03:13:18;;;;;;;;;;;;;;;14.10;76.29;100878.47;5072380;28;19968;-74
2023/07/03 03:15:44;;;;;;;;;;;;;;;14.05;75.19;100878.63;5070992;28;20022;-75
2023/07/03 03:18:10;;;;;;;;;;;;;;;14.03;76.33;100883.13;5072360;28;19920;-75
2023/07/03 03:20:36;;;;;;;;;;;;;;;13.95;77.88;100877.22;5072360;28;19966;-74
2023/07/03 03:23:01;;;;;;;;;;;;;;;13.91;77.19;100876.44;5055738;28;19967;-75
2023/07/03 03:25:27;;;;;;;;;;;;;;;13.89;76.22;100872.97;5090566;28;19923;-75
2023/07/03 03:27:52;;;;;;;;;;;;;;;13.90;77.23;100874.72;5072156;28;20003;-75
2023/07/03 03:30:18;;;;;;;;;;;;;;;13.89;75.30;100872.97;5073896;28;20320;-75
2023/07/03 03:32:44;;;;;;;;;;;;;;;13.88;76.50;100873.03;5075690;28;19939;-75
2023/07/03 03:35:09;;;;;;;;;;;;;;;13.85;76.92;100874.00;5094033;28;19999;-75
2023/07/03 03:37:36;;;;;;;;;;;;;;;13.85;78.04;100874.00;5075745;28;19922;-75
2023/07/03 03:40:03;;;;;;;;;;;;;;;13.80;79.64;100873.31;5075511;28;19920;-75
2023/07/03 03:42:29;;;;;;;;;;;;;;;13.82;80.02;100876.75;5075649;28;20004;-75
2023/07/03 03:44:55;;;;;;;;;;;;;;;13.79;78.80;100874.22;5075399;28;19920;-75
2023/07/03 03:47:22;;;;;;;;;;;;;;;13.73;80.33;100877.97;5075135;28;20436;-75
2023/07/03 03:49:49;;;;;;;;;;;;;;;13.73;81.43;100887.75;5075252;28;19920;-75
2023/07/03 03:52:14;;;;;;;;;;;;;;;13.72;81.10;100884.22;5075232;28;20556;-75
2023/07/03 03:54:39;;;;;;;;;;;;;;;13.73;80.14;100883.28;5075273;28;19928;-75
2023/07/03 03:57:05;;;;;;;;;;;;;;;13.69;81.26;100880.78;5093434;28;20015;-75
2023/07/03 03:59:31;;;;;;;;;;;;;;;13.69;81.68;100886.09;5075241;28;19927;-75
2023/07/03 04:01:57;;;;;;;;;;;;;;;13.64;82.36;100882.72;5075312;28;20034;-75
2023/07/03 04:04:22;;;;;;;;;;;;;;;13.61;82.37;100882.84;5093312;28;20427;-75
2023/07/03 04:06:48;;;;;;;;;;;;;;;13.62;82.05;100889.88;5093348;28;19932;-75
2023/07/03 04:09:13;;;;;;;;;;;;;;;13.60;82.73;100883.75;5071320;28;19935;-74
2023/07/03 04:11:38;;;;;;;;;;;;;;;13.57;83.92;100887.38;5067625;28;20000;-75
2023/07/03 04:14:04;;;;;;;;;;;;;;;13.60;82.95;100883.75;5072908;28;19950;-75
2023/07/03 04:16:31;;;;;;;;;;;;;;;13.61;83.39;100888.16;5070304;28;19928;-74
2023/07/03 04:18:56;;;;;;;;;;;;;;;13.62;83.80;100887.22;5072927;28;20000;-74
2023/07/03 04:21:21;;;;;;;;;;;;;;;13.63;83.76;100881.88;5072640;28;20381;-74
2023/07/03 04:23:47;;;;;;;;;;;;;;;13.66;82.60;100889.72;5072686;28;19989;-75
2023/07/03 04:26:13;;;;;;;;;;;;;;;13.64;83.43;100885.38;5072627;28;20263;-75
2023/07/03 04:28:38;;;;;;;;;;;;;;;13.64;83.97;100883.59;5072559;28;19928;-75
2023/07/03 04:31:04;;;;;;;;;;;;;;;13.70;84.60;100887.84;5071065;28;20375;-75
2023/07/03 04:33:29;;;;;;;;;;;;;;;13.71;83.56;100889.59;5054458;28;20395;-75
2023/07/03 04:35:54;;;;;;;;;;;;;;;13.72;82.35;100892.19;5071142;28;19920;-75
2023/07/03 04:38:23;;;;;;;;;;;;;;;13.71;85.98;100901.09;5072381;28;20358;-75
2023/07/03 04:40:49;;;;;;;;;;;;;;;13.75;83.98;100916.03;5072353;28;20014;-74
2023/07/03 04:43:15;;;;;;;;;;;;;;;13.75;86.24;100916.03;5072257;28;19916;-75
2023/07/03 04:45:47;;;;;;;;;;;;;;;13.78;85.86;100917.72;5072301;28;19926;-75
2023/07/03 04:48:13;;;;;;;;;;;;;;;13.76;86.22;100912.44;5072281;28;19939;-77
2023/07/03 04:50:38;;;;;;;;;;;;;;;13.77;87.16;100921.28;5050842;28;20327;-76
2023/07/03 04:53:04;;;;;;;;;;;;;;;13.74;87.98;100911.63;5062643;28;19940;-77
2023/07/03 04:55:30;;;;;;;;;;;;;;;13.76;88.88;100912.44;5071964;28;19974;-77
2023/07/03 04:57:57;;;;;;;;;;;;;;;13.80;88.38;100923.88;5054126;28;19920;-77
2023/07/03 05:00:23;;;;;;;;;;;;;;;13.80;87.07;100915.88;5071937;28;20363;-77
2023/07/03 05:02:51;;;;;;;;;;;;;;;13.80;88.68;100925.66;5070743;28;19969;-77
2023/07/03 05:05:16;;;;;;;;;;;;;;;13.80;89.66;100920.31;5071864;28;19920;-77
2023/07/03 05:07:43;;;;;;;;;;;;;;;13.82;89.51;100922.00;5053546;28;19931;-77
2023/07/03 05:10:09;;;;;;;;;;;;;;;13.85;89.39;100927.25;5070002;28;20024;-77
2023/07/03 05:12:35;;;;;;;;;;;;;;;13.89;88.13;100922.69;5071683;28;19917;-77
2023/07/03 05:15:00;;;;;;;;;;;;;;;13.94;87.28;100926.06;5071488;28;20469;-77
2023/07/03 05:17:26;;;;;;;;;;;;;;;13.94;89.07;100915.41;5069600;28;19928;-78
2023/07/03 05:19:51;;;;;;;;;;;;;;;13.95;88.88;100923.34;5071784;28;19916;-77
2023/07/03 05:22:16;;;;;;;;;;;;;;;14.02;87.60;100931.09;5079704;28;19938;-77
2023/07/03 05:24:42;;;;;;;;;;;;;;;13.97;87.83;100932.16;5054343;28;19924;-77
2023/07/03 05:27:07;;;;;;;;;;;;;;;13.99;88.00;100926.75;5070935;28;20383;-78
2023/07/03 05:29:33;;;;;;;;;;;;;;;14.03;88.31;100930.19;5070780;28;19943;-77
2023/07/03 05:32:00;;;;;;;;;;;;;;;14.08;87.47;100938.91;5070949;28;19913;-77
2023/07/03 05:34:26;;;;;;;;;;;;;;;14.09;88.09;100938.81;5069158;28;19923;-77
2023/07/03 05:36:51;;;;;;;;;;;;;;;14.11;88.47;100934.31;5062832;28;20398;-77
2023/07/03 05:39:16;;;;;;;;;;;;;;;14.17;87.51;100936.78;5069532;28;19960;-78
2023/07/03 05:41:41;;;;;;;;;;;;;;;14.22;87.18;100938.41;5071219;28;19943;-77
2023/07/03 05:44:07;;;;;;;;;;;;;;;14.21;87.29;100937.53;5071011;28;19942;-77
2023/07/03 05:46:33;;;;;;;;;;;;;;;14.23;88.20;100940.16;5070849;28;20022;-77
2023/07/03 05:48:58;;;;;;;;;;;;;;;14.24;87.34;100945.41;5056627;28;20381;-77
2023/07/03 05:51:23;;;;;;;;;;;;;;;14.26;86.29;100940.03;5069627;28;19925;-78
2023/07/03 05:53:49;;;;;;;;;;;;;;;14.28;86.04;100951.50;5070243;28;20019;-77
2023/07/03 05:56:14;;;;;;;;;;;;;;;14.29;87.18;100946.16;5071133;28;20367;-77
2023/07/03 05:58:40;;;;;;;;;;;;;;;14.29;87.43;100955.91;5049770;28;20142;-77
2023/07/03 06:01:05;;;;;;;;;;;;;;;14.28;87.44;100949.72;5069325;28;19938;-78
2023/07/03 06:03:31;;;;;;;;;;;;;;;14.32;87.44;100961.16;5069534;28;19916;-77
2023/07/03 06:05:57;;;;;;;;;;;;;;;14.36;86.85;100952.97;5070408;28;20458;-77
2023/07/03 06:08:22;;;;;;;;;;;;;;;14.39;87.04;100960.88;5071777;28;19971;-78
2023/07/03 06:10:48;;;;;;;;;;;;;;;14.39;86.88;100955.53;5071313;28;19924;-77
2023/07/03 06:13:14;;;;;;;;;;;;;;;14.40;86.61;100961.72;5091008;28;19927;-77
2023/07/03 06:15:39;;;;;;;;;;;;;;;14.40;86.48;100959.94;5089095;28;19951;-77
2023/07/03 06:18:05;;;;;;;;;;;;;;;14.41;87.61;100961.69;5072663;28;19920;-77
2023/07/03 06:20:30;;;;;;;;;;;;;;;14.42;87.53;100962.56;5090920;28;20003;-76
2023/07/03 06:22:56;;;;;;;;;;;;;;;14.45;87.87;100958.91;5088663;28;20018;-77
2023/07/03 06:25:21;;;;;;;;;;;;;;;14.48;86.85;100959.66;5072901;28;19928;-77
2023/07/03 06:27:47;;;;;;;;;;;;;;;14.54;87.49;100959.47;5090705;28;20018;-77
2023/07/03 06:30:12;;;;;;;;;;;;;;;14.56;87.37;100957.63;5090613;28;19916;-77
2023/07/03 06:32:37;;;;;;;;;;;;;;;14.62;86.03;100956.53;5090652;28;20030;-78
2023/07/03 06:35:03;;;;;;;;;;;;;;;14.68;86.23;100960.75;5090399;28;19920;-77
2023/07/03 06:37:28;;;;;;;;;;;;;;;14.74;86.56;100961.41;5090436;28;19924;-77
2023/07/03 06:39:53;;;;;;;;;;;;;;;14.84;86.67;100962.81;5090403;28;20002;-78
2023/07/03 06:42:19;;;;;;;;;;;;;;;14.89;87.05;100961.75;5090383;28;20019;-77
2023/07/03 06:44:54;;;;;;;;;;;;;;;14.95;85.57;100961.53;5071745;28;20041;-77
2023/07/03 06:47:19;;;;;;;;;;;;;;;15.04;85.10;100961.19;5055275;28;20026;-77
2023/07/03 06:49:44;;;;;;;;;;;;;;;15.03;86.23;100957.66;5072092;28;19974;-77
2023/07/03 06:52:10;;;;;;;;;;;;;;;15.07;85.27;100958.38;5090251;28;20361;-77
2023/07/03 06:54:35;;;;;;;;;;;;;;;15.05;85.21;100954.91;5072048;28;19916;-77
2023/07/03 06:57:01;;;;;;;;;;;;;;;15.04;85.60;100947.84;5090373;28;20000;-77
2023/07/03 06:59:27;;;;;;;;;;;;;;;15.03;84.56;100965.66;5098077;28;19921;-77
2023/07/03 07:01:52;;;;;;;;;;;;;;;15.01;84.71;100956.84;5071598;28;19928;-78
2023/07/03 07:04:17;;;;;;;;;;;;;;;15.02;84.40;100960.34;5103192;28;19920;-76
2023/07/03 07:06:43;;;;;;;;;;;;;;;15.04;84.01;100963.84;5095200;28;20014;-76
2023/07/03 07:09:08;;;;;;;;;;;;;;;15.10;83.98;100970.72;5093995;28;19996;-76
2023/07/03 07:11:34;;;;;;;;;;;;;;;15.13;83.15;100975.94;5094019;28;19976;-76
2023/07/03 07:14:01;;;;;;;;;;;;;;;15.16;82.11;100989.19;5074379;28;19920;-77
2023/07/03 07:16:31;;;;;;;;;;;;;;;15.11;81.67;100980.47;5090117;28;20407;-77
2023/07/03 07:18:59;;;;;;;;;;;;;;;15.12;81.43;100977.75;5087069;28;19916;-77
2023/07/03 07:21:24;;;;;;;;;;;;;;;15.14;81.22;100980.38;5069465;28;19923;-77
2023/07/03 07:23:51;;;;;;;;;;;;;;;15.18;81.04;100977.53;5096226;28;19920;-77
2023/07/03 07:26:16;;;;;;;;;;;;;;;15.27;80.68;100977.13;5058705;28;19927;-77
2023/07/03 07:28:42;;;;;;;;;;;;;;;15.29;80.40;100966.41;5083755;28;19916;-77
2023/07/03 07:31:07;;;;;;;;;;;;;;;15.36;79.99;100970.59;5092809;28;19930;-77
2023/07/03 07:33:32;;;;;;;;;;;;;;;15.45;79.46;100977.34;5084065;28;20224;-77
2023/07/03 07:35:58;;;;;;;;;;;;;;;15.55;78.91;100976.03;5074688;28;19926;-77
2023/07/03 07:38:23;;;;;;;;;;;;;;;15.71;79.00;100979.00;5093829;28;19927;-78
2023/07/03 07:40:49;;;;;;;;;;;;;;;15.86;77.11;100978.38;5086080;28;19920;-77
2023/07/03 07:43:15;;;;;;;;;;;;;;;16.00;76.23;100982.25;5081553;28;20031;-78
2023/07/03 07:45:40;;;;;;;;;;;;;;;16.07;75.61;100981.94;5088226;28;20325;-77
2023/07/03 07:48:05;;;;;;;;;;;;;;;16.12;75.52;100979.94;5075798;28;19920;-77
2023/07/03 07:50:37;;;;;;;;;;;;;;;16.18;74.06;100975.28;5090674;28;20015;-78
2023/07/03 07:53:02;;;;;;;;;;;;;;;16.24;74.61;100981.19;5077773;28;19931;-77
2023/07/03 07:55:28;;;;;;;;;;;;;;;16.25;72.82;100977.59;5076359;28;19920;-78
2023/07/03 07:57:53;;;;;;;;;;;;;;;16.30;72.62;100985.44;5072341;28;19920;-78
2023/07/03 08:00:19;;;;;;;;;;;;;;;16.24;72.39;100983.88;5074980;28;20335;-78
2023/07/03 08:02:45;;;;;;;;;;;;;;;16.27;71.74;100986.44;5091636;28;19947;-77
2023/07/03 08:05:10;;;;;;;;;;;;;;;16.23;70.92;100986.63;5065741;28;20463;-77
2023/07/03 08:07:35;;;;;;;;;;;;;;;16.20;71.89;100990.31;5061659;28;19939;-77
2023/07/03 08:10:01;;;;;;;;;;;;;;;16.26;71.91;100992.69;5107153;28;20016;-77
2023/07/03 08:12:26;;;;;;;;;;;;;;;16.25;70.99;100987.44;5082105;28;19920;-78
2023/07/03 08:14:51;;;;;;;;;;;;;;;16.30;70.87;100978.28;5092245;28;19920;-77
2023/07/03 08:17:17;;;;;;;;;;;;;;;16.32;71.24;100995.13;5090946;28;19924;-78
2023/07/03 08:19:42;;;;;;;;;;;;;;;16.36;69.48;100995.84;5073990;28;20242;-77
2023/07/03 08:22:08;;;;;;;;;;;;;;;16.33;69.81;100994.16;5091341;28;20339;-78
2023/07/03 08:24:33;;;;;;;;;;;;;;;16.37;69.83;100994.03;5092173;28;19920;-77
2023/07/03 08:26:58;;;;;;;;;;;;;;;16.39;69.39;100990.34;5091264;28;19968;-77
2023/07/03 08:29:24;;;;;;;;;;;;;;;16.40;69.23;100986.75;5068329;28;20271;-77
2023/07/03 08:31:49;;;;;;;;;;;;;;;16.45;68.39;100995.44;5092049;28;20083;-77
2023/07/03 08:34:15;;;;;;;;;;;;;;;16.48;68.30;101011.34;5065702;28;19928;-77
2023/07/03 08:36:40;;;;;;;;;;;;;;;16.64;67.02;101008.00;5092290;28;19916;-77
2023/07/03 08:39:05;;;;;;;;;;;;;;;16.59;67.00;101007.31;5069873;28;20244;-77
2023/07/03 08:41:35;;;;;;;;;;;;;;;16.61;67.08;100998.31;5073936;28;19920;-77
2023/07/03 08:44:00;;;;;;;;;;;;;;;16.61;67.11;101006.31;5069354;28;19916;-76
2023/07/03 08:46:27;;;;;;;;;;;;;;;16.67;66.85;101013.22;5052754;28;19924;-77
2023/07/03 08:48:55;;;;;;;;;;;;;;;16.70;67.17;101007.72;5077257;28;19916;-78
2023/07/03 08:51:22;;;;;;;;;;;;;;;16.75;66.45;101011.06;5091678;28;19969;-77
2023/07/03 08:53:51;;;;;;;;;;;;;;;16.87;64.73;101015.03;5082177;28;19916;-77
2023/07/03 08:56:21;;;;;;;;;;;;;;;16.76;66.44;101021.72;5092221;28;19916;-70
2023/07/03 08:58:49;;;;;;;;;;;;;;;16.83;65.54;101022.31;5088911;28;19916;-70
2023/07/03 09:01:38;;;;;;;;;;;;;;;16.90;66.30;101022.91;5065398;28;20340;-70
2023/07/03 09:04:03;;;;;;;;;;;;;;;17.07;66.29;101019.47;5091914;28;19953;-70
2023/07/03 09:06:29;;;;;;;;;;;;;;;17.32;64.61;101017.38;5098130;28;20398;-70
2023/07/03 09:08:54;;;;;;;;;;;;;;;17.51;64.86;101022.75;5096947;28;19920;-70
2023/07/03 09:11:20;;;;;;;;;;;;;;;17.66;65.01;101022.94;5093286;28;19938;-71
2023/07/03 09:13:47;;;;;;;;;;;;;;;17.79;63.85;101021.41;5083221;28;19972;-70
2023/07/03 09:16:16;;;;;;;;;;;;;;;17.87;63.30;101024.59;5089202;28;19920;-71
2023/07/03 09:18:44;;;;;;;;;;;;;;;17.73;58.31;101014.53;5091444;28;19908;-70
2023/07/03 09:21:09;;;;;;;;;;;;;;;17.63;60.46;101024.81;5091542;28;19916;-70
2023/07/03 09:23:53;;;;;;;;;;;;;;;17.56;60.93;101023.38;5096496;28;20369;-70
2023/07/03 09:26:22;;;;;;;;;;;;;;;17.54;60.38;101021.72;5087589;28;19968;-70
2023/07/03 09:28:47;;;;;;;;;;;;;;;17.47;60.42;101021.13;5090756;28;19916;-70
2023/07/03 09:31:13;;;;;;;;;;;;;;;17.44;61.74;101031.13;5089154;28;19916;-70
2023/07/03 09:33:38;;;;;;;;;;;;;;;17.43;62.30;101030.25;5072099;28;20002;-70
2023/07/03 09:36:18;;;;;;;;;;;;;;;17.35;62.08;101030.59;5076058;28;19920;-70
2023/07/03 09:38:44;;;;;;;;;;;;;;;17.28;62.09;101028.28;5056356;28;19916;-70
2023/07/03 09:41:09;;;;;;;;;;;;;;;17.25;63.62;101033.81;5085468;28;19927;-70
2023/07/03 09:43:41;;;;;;;;;;;;;;;17.26;64.53;101038.19;5090755;28;20333;-70
2023/07/03 09:46:09;;;;;;;;;;;;;;;17.21;63.10;101033.09;5081591;28;20270;-69
2023/07/03 09:48:35;;;;;;;;;;;;;;;17.16;64.14;101035.97;5080511;28;20416;-70
2023/07/03 09:51:04;;;;;;;;;;;;;;;17.07;63.80;101032.84;5072153;28;19920;-70
2023/07/03 09:53:30;;;;;;;;;;;;;;;17.06;64.37;101042.69;5071708;28;19927;-70
2023/07/03 09:55:57;;;;;;;;;;;;;;;17.04;65.40;101041.03;5090669;28;19916;-70
2023/07/03 09:58:25;;;;;;;;;;;;;;;17.07;66.14;101044.41;5091120;28;19916;-71
2023/07/03 10:00:54;;;;;;;;;;;;;;;17.01;65.95;101047.34;5090800;28;20136;-70
2023/07/03 10:03:23;;;;;;;;;;;;;;;17.01;66.80;101041.13;5090903;28;19958;-70
2023/07/03 10:05:48;;;;;;;;;;;;;;;17.16;66.08;101040.44;5090435;28;20209;-71
2023/07/03 10:08:19;;;;;;;;;;;;;;;17.28;64.09;101033.66;5071829;28;19922;-70
2023/07/03 10:10:44;;;;;;;;;;;;;;;17.37;65.70;101036.75;5085988;28;19978;-71
2023/07/03 10:13:17;;;;;;;;;;;;;;;17.74;65.34;101042.19;5090526;28;20024;-71
2023/07/03 10:15:42;;;;;;;;;;;;;;;17.93;63.58;101043.06;5069808;28;19942;-70
2023/07/03 10:18:28;;;;;;;;;;;;;;;17.94;63.70;101033.19;5090475;28;19920;-70
2023/07/03 10:20:54;;;;;;;;;;;;;;;17.92;62.41;101032.41;5068592;28;19955;-70
2023/07/03 10:23:30;;;;;;;;;;;;;;;17.86;62.65;101044.28;5086993;28;20017;-70
2023/07/03 10:25:58;;;;;;;;;;;;;;;17.80;62.52;101041.91;5103245;28;20060;-71
2023/07/03 10:28:27;;;;;;;;;;;;;;;17.89;63.24;101037.91;5090492;28;19919;-70
2023/07/03 10:30:56;;;;;;;;;;;;;;;18.10;62.78;101041.31;5090429;28;19931;-71
2023/07/03 10:33:26;;;;;;;;;;;;;;;18.47;60.74;101040.31;5090639;28;19951;-71
2023/07/03 10:35:52;;;;;;;;;;;;;;;18.79;60.38;101035.13;5090187;28;19916;-71
2023/07/03 10:38:17;;;;;;;;;;;;;;;19.13;58.17;101029.69;5090853;28;19927;-71
2023/07/03 10:41:03;;;;;;;;;;;;;;;19.45;57.71;101018.13;5104693;28;20022;-71
2023/07/03 10:43:33;;;;;;;;;;;;;;;19.70;53.22;101020.31;5096765;28;19920;-70
2023/07/03 10:46:00;;;;;;;;;;;;;;;19.50;54.21;101016.91;5088664;28;19927;-71
2023/07/03 10:48:27;;;;;;;;;;;;;;;19.25;51.75;101025.47;5075923;28;20405;-70
2023/07/03 10:51:05;;;;;;;;;;;;;;;19.04;52.03;101027.50;5076314;28;19916;-71
2023/07/03 10:53:35;;;;;;;;;;;;;;;18.81;51.64;101028.72;5094423;28;20358;-70
2023/07/03 10:56:08;;;;;;;;;;;;;;;18.79;52.68;101040.50;5076057;28;19916;-71
2023/07/03 10:58:43;;;;;;;;;;;;;;;18.62;51.65;101041.34;5094251;28;20011;-70
2023/07/03 11:01:19;;;;;;;;;;;;;;;18.66;51.28;101045.59;5078053;28;19938;-70
2023/07/03 11:04:08;;;;;;;;;;;;;;;19.07;47.73;101034.53;5092339;28;19916;-70
2023/07/03 11:06:36;;;;;;;;;;;;;;;19.33;46.82;101033.09;5074797;28;19966;-70
2023/07/03 11:09:07;;;;;;;;;;;;;;;19.42;46.84;101029.03;5091884;28;19927;-70
2023/07/03 11:11:47;;;;;;;;;;;;;;;19.64;46.80;101024.19;5080762;28;20379;-70
2023/07/03 11:14:20;;;;;;;;;;;;;;;19.81;43.55;101030.47;5084282;28;19916;-70
2023/07/03 11:17:01;;;;;;;;;;;;;;;19.72;43.71;101035.38;5091473;28;19963;-70
2023/07/03 11:19:41;;;;;;;;;;;;;;;19.92;43.13;101028.00;5093144;28;19944;-70
2023/07/03 11:22:17;;;;;;;;;;;;;;;20.19;44.63;101028.22;5088104;28;20370;-70
2023/07/03 11:25:09;;;;;;;;;;;;;;;20.35;44.14;101029.03;5073897;28;19955;-71
2023/07/03 11:27:34;;;;;;;;;;;;;;;20.50;44.05;101035.31;5057824;28;20015;-70
2023/07/03 11:30:00;;;;;;;;;;;;;;;20.40;42.47;101031.47;5084677;28;20367;-70
2023/07/03 11:32:26;;;;;;;;;;;;;;;20.47;42.68;101029.25;5088007;28;19942;-71
2023/07/03 11:34:52;;;;;;;;;;;;;;;20.41;43.00;101036.72;5091505;28;19922;-71
2023/07/03 11:37:46;;;;;;;;;;;;;;;20.26;42.44;101036.78;5093213;28;19928;-70
2023/07/03 11:40:27;;;;;;;;;;;;;;;19.95;42.98;101042.16;5075169;28;19920;-70
2023/07/03 11:43:11;;;;;;;;;;;;;;;19.65;43.72;101042.03;5060250;28;20294;-70
2023/07/03 11:45:36;;;;;;;;;;;;;;;19.83;45.29;101044.66;5081633;28;20259;-76
2023/07/03 11:48:02;;;;;;;;;;;;;;;20.20;45.87;101027.25;5081909;28;19924;-77
2023/07/03 11:50:33;;;;;;;;;;;;;;;20.61;44.32;101023.94;5082222;28;19977;-76
2023/07/03 11:52:58;;;;;;;;;;;;;;;20.91;43.46;101013.09;5092881;28;19916;-77
2023/07/03 11:55:34;;;;;;;;;;;;;;;21.14;43.96;101026.94;5093480;28;19999;-77
2023/07/03 11:57:59;;;;;;;;;;;;;;;21.03;43.00;101028.47;5082010;28;19916;-76
2023/07/03 12:00:27;;;;;;;;;;;;;;;20.81;42.72;101026.25;5079714;28;20263;-76
2023/07/03 12:02:54;;;;;;;;;;;;;;;20.70;43.77;101034.13;5097754;28;19920;-76
2023/07/03 12:05:38;;;;;;;;;;;;;;;20.63;43.04;101030.09;5099226;28;20380;-77
2023/07/03 12:08:10;;;;;;;;;;;;;;;20.63;43.11;101040.84;5092565;28;20332;-76
2023/07/03 12:10:35;;;;;;;;;;;;;;;20.43;43.97;101030.41;5086763;28;20371;-77
2023/07/03 12:13:19;;;;;;;;;;;;;;;20.27;45.06;101036.69;5091642;28;19916;-76
2023/07/03 12:15:44;;;;;;;;;;;;;;;20.11;45.02;101047.47;5091049;28;19928;-76
2023/07/03 12:18:10;;;;;;;;;;;;;;;20.07;44.95;101045.06;5074206;28;20294;-76
2023/07/03 12:20:36;;;;;;;;;;;;;;;19.90;45.78;101052.25;5089553;28;19921;-76
2023/07/03 12:23:01;;;;;;;;;;;;;;;19.84;46.79;101049.09;5091630;28;19916;-76
2023/07/03 12:25:28;;;;;;;;;;;;;;;19.80;46.69;101042.16;5077360;28;20317;-76
2023/07/03 12:27:54;;;;;;;;;;;;;;;19.62;46.70;101052.09;5088716;28;19924;-76
2023/07/03 12:30:27;;;;;;;;;;;;;;;19.56;47.30;101058.69;5090586;28;20377;-76
2023/07/03 12:32:53;;;;;;;;;;;;;;;19.50;46.75;101049.13;5086549;28;20378;-77
2023/07/03 12:35:22;;;;;;;;;;;;;;;19.68;46.16;101046.38;5087441;28;19916;-76
2023/07/03 12:37:55;;;;;;;;;;;;;;;19.80;45.49;101051.06;5096182;28;19920;-76